createdAt,value
2022-08-04T00:01:38.886Z,3.60
2022-08-04T00:04:16.643Z,3.50
2022-08-04T00:06:52.210Z,3.72
2022-08-04T00:09:47.551Z,3.60
2022-08-04T00:12:19.536Z,3.55
2022-08-04T00:14:53.383Z,3.27
2022-08-04T00:17:29.746Z,3.15
2022-08-04T00:20:03.136Z,3.08
2022-08-04T00:22:34.506Z,3.50
2022-08-04T00:25:08.366Z,3.05
2022-08-04T00:27:37.911Z,3.53
2022-08-04T00:30:09.347Z,5.32
2022-08-04T00:32:39.822Z,3.17
2022-08-04T00:35:09.809Z,3.55
2022-08-04T00:37:41.129Z,3.45
2022-08-04T00:40:17.162Z,3.47
2022-08-04T00:42:59.098Z,3.50
2022-08-04T00:46:15.444Z,3.17
2022-08-04T00:48:55.038Z,2.55
2022-08-04T00:51:40.732Z,2.55
2022-08-04T00:54:50.979Z,2.53
2022-08-04T00:57:40.239Z,2.75
2022-08-04T01:00:13.295Z,2.45
2022-08-04T01:03:13.372Z,2.70
2022-08-04T01:06:13.336Z,2.95
2022-08-04T01:08:54.982Z,2.97
2022-08-04T01:12:05.466Z,3.42
2022-08-04T01:15:04.495Z,3.67
2022-08-04T01:17:53.214Z,3.50
2022-08-04T01:20:28.528Z,3.50
2022-08-04T01:23:48.695Z,3.50
2022-08-04T01:26:43.712Z,3.70
2022-08-04T01:29:30.472Z,3.53
2022-08-04T01:32:16.885Z,3.25
2022-08-04T01:34:59.069Z,3.40
2022-08-04T01:37:44.944Z,3.33
2022-08-04T01:40:16.672Z,3.13
2022-08-04T01:42:46.872Z,3.25
2022-08-04T01:45:16.821Z,3.30
2022-08-04T01:47:56.276Z,3.35
2022-08-04T01:50:28.008Z,3.63
2022-08-04T01:52:58.063Z,3.53
2022-08-04T01:55:54.362Z,3.40
2022-08-04T01:58:19.771Z,3.83
2022-08-04T02:01:02.700Z,3.28
2022-08-04T02:04:18.584Z,3.13
2022-08-04T02:06:52.431Z,3.03
2022-08-04T02:09:54.469Z,3.33
2022-08-04T02:12:40.141Z,3.22
2022-08-04T02:15:17.384Z,3.50
2022-08-04T02:17:49.251Z,3.20
2022-08-04T02:20:22.560Z,4.00
2022-08-04T02:23:12.929Z,3.50
2022-08-04T02:25:45.608Z,3.40
2022-08-04T02:28:17.858Z,3.25
2022-08-04T02:30:53.889Z,3.00
2022-08-04T02:33:27.406Z,3.70
2022-08-04T02:36:02.350Z,3.70
2022-08-04T02:38:59.017Z,3.90
2022-08-04T02:41:29.374Z,3.92
2022-08-04T02:44:01.113Z,3.77
2022-08-04T02:46:31.254Z,4.18
2022-08-04T02:49:00.602Z,4.00
2022-08-04T02:51:36.407Z,4.13
2022-08-04T02:54:08.212Z,4.30
2022-08-04T02:56:39.631Z,3.87
2022-08-04T02:59:11.347Z,4.63
2022-08-04T03:01:57.059Z,3.78
2022-08-04T03:04:42.628Z,4.25
2022-08-04T03:07:26.812Z,3.65
2022-08-04T03:10:15.020Z,3.67
2022-08-04T03:13:11.745Z,3.58
2022-08-04T03:15:58.443Z,4.18
2022-08-04T03:18:46.449Z,3.40
2022-08-04T03:21:33.188Z,4.03
2022-08-04T03:24:27.434Z,4.00
2022-08-04T03:27:13.297Z,3.67
2022-08-04T03:30:03.848Z,4.60
2022-08-04T03:33:10.556Z,3.58
2022-08-04T03:36:11.613Z,3.38
2022-08-04T03:38:55.725Z,3.50
2022-08-04T03:41:51.809Z,5.18
2022-08-04T03:45:17.357Z,3.58
2022-08-04T03:48:30.610Z,3.40
2022-08-04T03:51:43.256Z,3.13
2022-08-04T03:54:41.630Z,3.37
2022-08-04T03:57:38.717Z,3.00
2022-08-04T04:00:18.958Z,2.65
2022-08-04T04:03:01.256Z,2.70
2022-08-04T04:05:40.368Z,3.78
2022-08-04T04:08:59.543Z,3.10
2022-08-04T04:12:02.943Z,3.20
2022-08-04T04:14:52.554Z,4.05
2022-08-04T04:17:37.777Z,3.00
2022-08-04T04:20:14.902Z,2.92
2022-08-04T04:23:03.856Z,2.60
2022-08-04T04:26:02.925Z,2.90
2022-08-04T04:28:44.488Z,2.90
2022-08-04T04:31:18.442Z,2.90
2022-08-04T04:34:13.260Z,3.05
2022-08-04T04:36:48.560Z,2.67
2022-08-04T04:39:34.259Z,2.70
2022-08-04T04:42:21.883Z,4.50
2022-08-04T04:45:25.355Z,2.60
2022-08-04T04:48:15.632Z,2.83
2022-08-04T04:51:05.419Z,2.73
2022-08-04T04:54:00.458Z,2.95
2022-08-04T04:56:51.593Z,2.92
2022-08-04T04:59:25.120Z,2.95
2022-08-04T05:02:12.804Z,2.90
2022-08-04T05:05:16.740Z,3.20
2022-08-04T05:08:42.775Z,3.30
2022-08-04T05:11:43.901Z,3.20
2022-08-04T05:14:36.200Z,3.08
2022-08-04T05:17:15.815Z,3.45
2022-08-04T05:19:58.551Z,3.10
2022-08-04T05:22:43.324Z,3.20
2022-08-04T05:25:24.536Z,3.85
2022-08-04T05:28:13.816Z,4.13
2022-08-04T05:30:48.728Z,3.38
2022-08-04T05:33:42.993Z,3.67
2022-08-04T05:36:35.347Z,4.07
2022-08-04T05:39:10.422Z,3.45
2022-08-04T05:41:44.704Z,2.83
2022-08-04T05:44:14.927Z,3.47
2022-08-04T05:46:45.613Z,2.97
2022-08-04T05:49:24.798Z,3.17
2022-08-04T05:51:54.998Z,3.38
2022-08-04T05:54:25.022Z,2.78
2022-08-04T05:56:56.509Z,3.25
2022-08-04T05:59:27.313Z,3.00
2022-08-04T06:01:59.356Z,2.50
2022-08-04T06:04:50.074Z,2.70
2022-08-04T06:07:19.794Z,3.10
2022-08-04T06:09:49.199Z,3.28
2022-08-04T06:12:21.833Z,3.20
2022-08-04T06:14:53.598Z,3.03
2022-08-04T06:19:10.077Z,3.58
2022-08-04T06:20:49.936Z,2.75
2022-08-04T06:23:22.036Z,2.83
2022-08-04T06:25:54.511Z,2.83
2022-08-04T06:28:24.467Z,2.50
2022-08-04T06:30:55.181Z,2.65
2022-08-04T06:33:27.881Z,2.92
2022-08-04T06:35:58.304Z,2.45
2022-08-04T06:38:29.259Z,3.13
2022-08-04T06:40:59.755Z,2.47
2022-08-04T06:43:30.801Z,3.28
2022-08-04T06:46:02.883Z,2.10
2022-08-04T06:48:33.810Z,1.88
2022-08-04T06:51:32.710Z,2.13
2022-08-04T06:53:54.571Z,1.90
2022-08-04T06:56:24.334Z,2.92
2022-08-04T06:58:55.222Z,2.35
2022-08-04T07:01:25.016Z,1.70
2022-08-04T07:03:54.959Z,1.50
2022-08-04T07:06:25.653Z,1.55
2022-08-04T07:08:56.512Z,1.75
2022-08-04T07:11:26.348Z,1.92
2022-08-04T07:13:56.681Z,2.10
2022-08-04T07:16:30.916Z,1.70
2022-08-04T07:19:10.427Z,1.70
2022-08-04T07:21:41.368Z,2.25
2022-08-04T07:24:38.062Z,1.80
2022-08-04T07:27:10.480Z,1.60
2022-08-04T07:29:40.086Z,1.90
2022-08-04T07:32:11.062Z,2.30
2022-08-04T07:34:41.187Z,1.88
2022-08-04T07:37:11.903Z,1.60
2022-08-04T07:39:47.654Z,1.70
2022-08-04T07:42:21.929Z,2.17
2022-08-04T07:44:51.761Z,1.63
2022-08-04T07:47:25.308Z,2.17
2022-08-04T07:49:57.562Z,2.40
2022-08-04T07:52:28.667Z,2.30
2022-08-04T07:54:57.926Z,2.40
2022-08-04T07:57:40.270Z,1.90
2022-08-04T08:00:12.179Z,1.95
2022-08-04T08:02:41.513Z,2.13
2022-08-04T08:05:13.047Z,2.33
2022-08-04T08:07:50.749Z,2.10
2022-08-04T08:10:23.908Z,2.20
2022-08-04T08:12:54.115Z,2.05
2022-08-04T08:15:23.857Z,2.35
2022-08-04T08:17:59.657Z,2.20
2022-08-04T08:20:30.981Z,2.17
2022-08-04T08:23:01.749Z,2.20
2022-08-04T08:25:33.094Z,2.00
2022-08-04T08:28:03.162Z,2.03
2022-08-04T08:30:32.944Z,2.25
2022-08-04T08:33:07.908Z,1.83
2022-08-04T08:35:54.141Z,1.80
2022-08-04T08:38:40.126Z,1.60
2022-08-04T08:41:18.225Z,1.70
2022-08-04T08:44:19.105Z,1.90
2022-08-04T08:47:18.073Z,1.90
2022-08-04T08:50:27.348Z,2.03
2022-08-04T08:53:09.581Z,2.10
2022-08-04T08:55:45.884Z,2.10
2022-08-04T08:59:03.246Z,2.05
2022-08-04T09:02:10.678Z,2.00
2022-08-04T09:05:09.163Z,2.28
2022-08-04T09:08:01.233Z,2.15
2022-08-04T09:10:52.242Z,1.88
2022-08-04T09:13:33.474Z,2.00
2022-08-04T09:16:19.246Z,2.00
2022-08-04T09:18:58.100Z,1.80
2022-08-04T09:21:34.925Z,1.70
2022-08-04T09:24:36.449Z,1.83
2022-08-04T09:27:06.079Z,2.45
2022-08-04T09:29:51.579Z,2.10
2022-08-04T09:32:35.905Z,2.05
2022-08-04T09:35:26.974Z,2.25
2022-08-04T09:38:26.630Z,2.00
2022-08-04T09:41:03.875Z,2.10
2022-08-04T09:44:52.373Z,1.90
2022-08-04T09:47:04.120Z,2.30
2022-08-04T09:49:51.703Z,2.53
2022-08-04T09:52:45.477Z,2.10
2022-08-04T09:55:53.106Z,2.00
2022-08-04T09:58:53.238Z,2.23
2022-08-04T10:01:25.074Z,1.95
2022-08-04T10:03:58.214Z,2.10
2022-08-04T10:07:05.069Z,2.00
2022-08-04T10:09:46.842Z,2.20
2022-08-04T10:12:30.051Z,1.70
2022-08-04T10:15:09.717Z,1.88
2022-08-04T10:18:05.417Z,1.95
2022-08-04T10:21:15.599Z,1.80
2022-08-04T10:24:13.577Z,1.90
2022-08-04T10:26:57.014Z,2.03
2022-08-04T10:29:30.988Z,1.90
2022-08-04T10:32:07.316Z,1.98
2022-08-04T10:34:46.053Z,2.00
2022-08-04T10:37:56.510Z,2.35
2022-08-04T10:40:36.010Z,2.10
2022-08-04T10:43:20.893Z,2.20
2022-08-04T10:45:58.281Z,1.85
2022-08-04T10:48:55.764Z,1.80
2022-08-04T10:51:59.603Z,2.03
2022-08-04T10:54:50.929Z,2.00
2022-08-04T10:57:32.417Z,2.03
2022-08-04T11:00:06.751Z,2.38
2022-08-04T11:02:47.007Z,2.13
2022-08-04T11:05:55.195Z,2.00
2022-08-04T11:08:29.693Z,2.27
2022-08-04T11:11:05.092Z,1.90
2022-08-04T11:13:47.314Z,2.15
2022-08-04T11:16:21.056Z,2.10
2022-08-04T11:19:15.357Z,2.00
2022-08-04T11:22:27.236Z,2.00
2022-08-04T11:25:10.817Z,2.35
2022-08-04T11:28:06.399Z,1.98
2022-08-04T11:30:57.069Z,2.00
2022-08-04T11:33:32.146Z,1.90
2022-08-04T11:36:37.193Z,1.87
2022-08-04T11:39:28.944Z,2.55
2022-08-04T11:42:08.395Z,2.30
2022-08-04T11:44:46.697Z,2.10
2022-08-04T11:47:24.095Z,2.30
2022-08-04T11:50:27.564Z,2.10
2022-08-04T11:52:57.624Z,2.47
2022-08-04T11:55:29.059Z,2.38
2022-08-04T11:57:58.847Z,2.60
2022-08-04T12:00:31.223Z,2.22
2022-08-04T12:03:27.959Z,2.33
2022-08-04T12:06:23.369Z,2.38
2022-08-04T12:09:10.701Z,2.10
2022-08-04T12:11:59.655Z,2.00
2022-08-04T12:14:43.314Z,2.35
2022-08-04T12:17:13.852Z,2.20
2022-08-04T12:20:05.090Z,2.25
2022-08-04T12:22:56.128Z,2.40
2022-08-04T12:25:44.478Z,2.30
2022-08-04T12:29:06.899Z,2.30
2022-08-04T12:31:31.138Z,2.30
2022-08-04T12:34:18.692Z,2.20
2022-08-04T12:36:55.693Z,2.05
2022-08-04T12:39:25.870Z,2.45
2022-08-04T12:42:07.510Z,2.50
2022-08-04T12:44:38.946Z,2.03
2022-08-04T12:47:27.039Z,2.00
2022-08-04T12:50:03.864Z,2.10
2022-08-04T12:53:00.390Z,2.00
2022-08-04T12:55:28.962Z,2.20
2022-08-04T12:57:58.773Z,2.10
2022-08-04T13:00:36.739Z,2.08
2022-08-04T13:03:17.572Z,2.20
2022-08-04T13:05:47.980Z,2.10
2022-08-04T13:08:18.121Z,2.20
2022-08-04T13:10:49.760Z,2.20
2022-08-04T13:13:24.035Z,2.50
2022-08-04T13:16:02.763Z,2.60
2022-08-04T13:18:35.695Z,2.70
2022-08-04T13:21:23.109Z,2.17
2022-08-04T13:27:16.148Z,2.20
2022-08-04T13:30:00.474Z,2.40
2022-08-04T13:30:24.273Z,2.13
2022-08-04T13:32:33.091Z,2.25
2022-08-04T13:35:04.785Z,1.95
2022-08-04T13:37:39.288Z,2.40
2022-08-04T13:40:12.022Z,2.47
2022-08-04T13:42:41.654Z,2.38
2022-08-04T13:45:11.775Z,2.40
2022-08-04T13:47:42.142Z,2.00
2022-08-04T13:50:27.591Z,2.53
2022-08-04T13:52:59.356Z,2.22
2022-08-04T13:55:31.550Z,2.90
2022-08-04T13:58:17.506Z,2.50
2022-08-04T14:00:57.183Z,2.33
2022-08-04T14:03:53.459Z,2.70
2022-08-04T14:06:28.501Z,2.67
2022-08-04T14:09:17.811Z,2.17
2022-08-04T14:12:10.548Z,2.40
2022-08-04T14:14:53.399Z,2.45
2022-08-04T14:17:30.280Z,2.80
2022-08-04T14:20:05.248Z,2.20
2022-08-04T14:22:37.077Z,2.22
2022-08-04T14:25:17.083Z,2.55
2022-08-04T14:27:58.362Z,2.45
2022-08-04T14:30:33.776Z,2.40
2022-08-04T14:34:00.618Z,2.45
2022-08-04T14:36:04.067Z,2.45
2022-08-04T14:38:50.254Z,2.30
2022-08-04T14:41:22.872Z,2.45
2022-08-04T14:44:00.399Z,2.50
2022-08-04T14:46:36.943Z,2.38
2022-08-04T14:49:12.234Z,2.72
2022-08-04T14:51:55.054Z,2.22
2022-08-04T14:54:35.887Z,2.55
2022-08-04T14:57:08.618Z,2.57
2022-08-04T14:59:59.082Z,2.38
2022-08-04T15:02:31.204Z,2.40
2022-08-04T15:06:01.007Z,2.60
2022-08-04T15:07:50.263Z,2.63
2022-08-04T15:10:19.539Z,2.40
2022-08-04T15:12:49.179Z,2.47
2022-08-04T15:15:35.928Z,2.42
2022-08-04T15:18:06.116Z,2.42
2022-08-04T15:20:35.490Z,2.53
2022-08-04T15:23:10.423Z,2.40
2022-08-04T15:25:42.846Z,2.60
2022-08-04T15:28:18.318Z,2.33
2022-08-04T15:30:48.572Z,2.55
2022-08-04T15:33:24.812Z,2.40
2022-08-04T15:36:28.521Z,2.40
2022-08-04T15:39:03.844Z,2.40
2022-08-04T15:41:46.346Z,2.45
2022-08-04T15:44:39.432Z,2.50
2022-08-04T15:47:17.199Z,2.58
2022-08-04T15:49:47.250Z,2.60
2022-08-04T15:52:18.556Z,2.58
2022-08-04T15:54:52.582Z,2.42
2022-08-04T15:57:59.699Z,2.85
2022-08-04T16:00:29.113Z,2.60
2022-08-04T16:02:58.627Z,2.70
2022-08-04T16:05:27.792Z,2.35
2022-08-04T16:08:04.841Z,2.67
2022-08-04T16:10:33.951Z,2.60
2022-08-04T16:13:19.586Z,2.72
2022-08-04T16:15:49.764Z,3.03
2022-08-04T16:18:26.507Z,2.50
2022-08-04T16:20:59.068Z,2.50
2022-08-04T16:23:53.687Z,2.75
2022-08-04T16:26:54.371Z,2.80
2022-08-04T16:29:25.448Z,2.70
2022-08-04T16:32:26.908Z,2.50
2022-08-04T16:35:05.950Z,2.65
2022-08-04T16:37:39.490Z,2.80
2022-08-04T16:40:39.624Z,2.40
2022-08-04T16:43:14.631Z,2.80
2022-08-04T16:46:08.027Z,2.80
2022-08-04T16:49:10.531Z,2.90
2022-08-04T16:51:39.786Z,2.10
2022-08-04T16:54:09.189Z,2.38
2022-08-04T16:56:38.409Z,2.30
2022-08-04T16:59:15.559Z,2.65
2022-08-04T17:01:52.776Z,2.47
2022-08-04T17:04:31.652Z,2.65
2022-08-04T17:07:08.891Z,2.47
2022-08-04T17:09:38.168Z,2.60
2022-08-04T17:12:07.697Z,2.60
2022-08-04T17:14:36.982Z,2.50
2022-08-04T17:17:08.918Z,2.70
2022-08-04T17:19:38.312Z,2.45
2022-08-04T17:22:10.655Z,2.60
2022-08-04T17:24:41.682Z,2.70
2022-08-04T17:28:09.644Z,2.45
2022-08-04T17:30:00.287Z,2.50
2022-08-04T17:32:29.589Z,2.42
2022-08-04T17:35:03.795Z,2.60
2022-08-04T17:37:41.122Z,2.40
2022-08-04T17:40:25.664Z,2.50
2022-08-04T17:44:01.037Z,2.33
2022-08-04T17:49:16.695Z,2.20
2022-08-04T17:52:05.048Z,2.45
2022-08-04T17:54:41.013Z,2.55
2022-08-04T17:57:23.911Z,2.30
2022-08-04T18:00:00.012Z,2.30
2022-08-04T18:02:35.113Z,2.23
2022-08-04T18:05:11.503Z,2.40
2022-08-04T18:08:42.013Z,2.30
2022-08-04T18:10:51.709Z,2.40
2022-08-04T18:13:26.271Z,2.45
2022-08-04T18:16:14.358Z,2.27
2022-08-04T18:19:13.898Z,2.38
2022-08-04T18:21:46.743Z,2.38
2022-08-04T18:27:23.802Z,2.20
2022-08-04T18:30:27.974Z,2.40
2022-08-04T18:33:04.461Z,2.30
2022-08-04T18:36:32.521Z,2.30
2022-08-04T18:38:24.323Z,2.30
2022-08-04T18:40:55.360Z,2.15
2022-08-04T18:43:30.403Z,2.30
2022-08-04T18:46:14.682Z,2.28
2022-08-04T18:48:45.170Z,3.00
2022-08-04T18:51:23.497Z,2.92
2022-08-04T18:53:58.947Z,3.25
2022-08-04T18:56:32.610Z,2.90
2022-08-04T18:59:10.285Z,2.55
2022-08-04T19:02:13.455Z,2.35
2022-08-04T19:04:33.032Z,2.75
2022-08-04T19:07:29.471Z,2.40
2022-08-04T19:09:53.950Z,2.73
2022-08-04T19:12:28.112Z,2.40
2022-08-04T19:15:08.554Z,2.28
2022-08-04T19:17:54.197Z,2.38
2022-08-04T19:20:27.240Z,2.97
2022-08-04T19:24:29.358Z,2.10
2022-08-04T19:26:02.116Z,2.28
2022-08-04T19:28:38.524Z,2.55
2022-08-04T19:31:10.212Z,2.20
2022-08-04T19:33:59.173Z,2.47
2022-08-04T19:36:33.712Z,2.60
2022-08-04T19:39:11.895Z,2.35
2022-08-04T19:42:04.203Z,2.50
2022-08-04T19:44:30.820Z,2.72
2022-08-04T19:47:02.312Z,2.55
2022-08-04T19:50:04.946Z,2.43
2022-08-04T19:52:40.005Z,2.20
2022-08-04T19:55:22.437Z,2.58
2022-08-04T19:57:53.163Z,2.10
2022-08-04T20:00:33.015Z,2.33
2022-08-04T20:05:56.300Z,2.55
2022-08-04T20:08:31.789Z,2.38
2022-08-04T20:11:01.084Z,2.30
2022-08-04T20:13:36.971Z,2.08
2022-08-04T20:16:28.587Z,2.30
2022-08-04T20:19:03.175Z,2.25
2022-08-04T20:21:55.454Z,2.30
2022-08-04T20:24:39.033Z,2.20
2022-08-04T20:27:16.403Z,2.03
2022-08-04T20:29:50.561Z,2.20
2022-08-04T20:32:24.916Z,2.38
2022-08-04T20:34:55.978Z,2.30
2022-08-04T20:37:54.799Z,2.17
2022-08-04T20:40:16.292Z,2.70
2022-08-04T20:42:46.343Z,2.67
2022-08-04T20:45:17.305Z,2.35
2022-08-04T20:47:53.994Z,2.20
2022-08-04T20:50:29.646Z,2.50
2022-08-04T20:53:00.088Z,2.00
2022-08-04T20:55:30.136Z,2.40
2022-08-04T20:58:03.460Z,2.50
2022-08-04T21:00:33.766Z,2.53
2022-08-04T21:03:03.719Z,2.60
2022-08-04T21:05:33.171Z,2.47
2022-08-04T21:08:02.651Z,2.50
2022-08-04T21:10:32.132Z,1.92
2022-08-04T21:13:01.637Z,1.92
2022-08-04T21:15:58.190Z,2.00
2022-08-04T21:18:29.398Z,2.10
2022-08-04T21:20:58.982Z,2.10
2022-08-04T21:23:30.018Z,2.03
2022-08-04T21:26:04.577Z,2.17
2022-08-04T21:28:34.646Z,2.15
2022-08-04T21:31:11.106Z,2.00
2022-08-04T21:33:52.034Z,2.13
2022-08-04T21:36:21.724Z,2.13
2022-08-04T21:38:52.477Z,2.13
2022-08-04T21:41:24.137Z,2.30
2022-08-04T21:43:54.533Z,1.90
2022-08-04T21:46:23.762Z,2.13
2022-08-04T21:48:53.298Z,2.00
2022-08-04T21:52:00.705Z,2.10
2022-08-04T21:54:14.938Z,2.30
2022-08-04T21:56:50.940Z,2.15
2022-08-04T21:59:45.750Z,1.90
2022-08-04T22:02:15.508Z,2.03
2022-08-04T22:04:44.947Z,2.28
2022-08-04T22:07:16.663Z,2.00
2022-08-04T22:09:59.947Z,1.90
2022-08-04T22:12:30.260Z,2.20
2022-08-04T22:15:00.032Z,1.90
2022-08-04T22:17:35.461Z,2.50
2022-08-04T22:20:05.884Z,2.03
2022-08-04T22:23:00.110Z,2.10
2022-08-04T22:25:37.706Z,2.00
2022-08-04T22:28:07.995Z,2.17
2022-08-04T22:30:48.444Z,2.20
2022-08-04T22:33:23.004Z,2.28
2022-08-04T22:35:52.399Z,1.75
2022-08-04T22:38:31.720Z,1.90
2022-08-04T22:41:13.285Z,2.20
2022-08-04T22:43:43.677Z,2.90
2022-08-04T22:46:22.131Z,2.10
2022-08-04T22:48:51.371Z,2.00
2022-08-04T22:51:21.078Z,2.10
2022-08-04T22:53:52.645Z,2.08
2022-08-04T22:56:37.142Z,2.40
2022-08-04T22:59:11.385Z,1.88
2022-08-04T23:01:59.986Z,2.30
2022-08-04T23:04:32.972Z,2.20
2022-08-04T23:07:08.942Z,2.15
2022-08-04T23:09:50.734Z,2.05
2022-08-04T23:12:26.556Z,2.00
2022-08-04T23:14:57.926Z,2.30
2022-08-04T23:17:28.506Z,2.07
2022-08-04T23:20:00.750Z,2.00
2022-08-04T23:22:41.343Z,2.33
2022-08-04T23:25:15.696Z,1.80
2022-08-04T23:27:48.207Z,2.40
2022-08-04T23:30:29.714Z,1.97
2022-08-04T23:33:00.012Z,1.95
2022-08-04T23:35:29.255Z,1.80
2022-08-04T23:38:18.463Z,2.20
2022-08-04T23:40:49.971Z,2.08
2022-08-04T23:43:19.951Z,2.00
2022-08-04T23:46:07.003Z,2.33
2022-08-04T23:48:39.346Z,2.25
2022-08-04T23:51:15.970Z,2.65
2022-08-04T23:54:02.527Z,2.58
2022-08-04T23:56:35.687Z,2.37
2022-08-04T23:59:17.933Z,2.58
